createdAt,value
2023-03-17T00:01:54.496Z,98884.38
2023-03-17T00:04:24.300Z,98889.53
2023-03-17T00:06:51.851Z,98882.31
2023-03-17T00:09:19.927Z,98883.97
2023-03-17T00:11:47.121Z,98879.44
2023-03-17T00:14:14.368Z,98882.16
2023-03-17T00:16:43.760Z,98874.38
2023-03-17T00:19:17.298Z,98884.66
2023-03-17T00:21:46.148Z,98887.91
2023-03-17T00:24:14.887Z,98892.75
2023-03-17T00:26:42.568Z,98887.94
2023-03-17T00:29:09.947Z,98882.84
2023-03-17T00:31:38.177Z,98881.50
2023-03-17T00:34:05.864Z,98887.19
2023-03-17T00:36:34.419Z,98892.59
2023-03-17T00:39:01.473Z,98882.69
2023-03-17T00:41:29.532Z,98878.97
2023-03-17T00:43:57.361Z,98869.56
2023-03-17T00:46:28.935Z,98879.25
2023-03-17T00:48:55.602Z,98880.59
2023-03-17T00:51:23.432Z,98883.59
2023-03-17T00:53:50.588Z,98887.63
2023-03-17T00:56:20.799Z,98882.03
2023-03-17T00:58:48.443Z,98875.31
2023-03-17T01:01:15.136Z,98882.03
2023-03-17T01:03:41.733Z,98864.13
2023-03-17T01:06:12.900Z,98856.88
2023-03-17T01:08:41.217Z,98870.56
2023-03-17T01:11:18.879Z,98860.13
2023-03-17T01:13:45.805Z,98868.97
2023-03-17T01:16:13.265Z,98855.56
2023-03-17T01:18:40.360Z,98852.09
2023-03-17T01:21:07.766Z,98852.88
2023-03-17T01:23:34.376Z,98849.66
2023-03-17T01:26:00.936Z,98853.16
2023-03-17T01:28:28.249Z,98854.81
2023-03-17T01:30:55.461Z,98840.34
2023-03-17T01:33:22.264Z,98838.25
2023-03-17T01:35:50.457Z,98825.94
2023-03-17T01:38:17.578Z,98814.72
2023-03-17T01:40:48.114Z,98818.25
2023-03-17T01:43:25.362Z,98810.47
2023-03-17T01:46:20.785Z,98821.75
2023-03-17T01:49:19.804Z,98821.47
2023-03-17T01:52:18.936Z,98819.09
2023-03-17T01:54:56.734Z,98819.13
2023-03-17T01:57:29.683Z,98819.94
2023-03-17T02:00:02.029Z,98820.75
2023-03-17T02:02:36.156Z,98819.44
2023-03-17T02:05:05.473Z,98809.81
2023-03-17T02:07:33.027Z,98812.78
2023-03-17T02:10:00.357Z,98810.91
2023-03-17T02:12:29.274Z,98806.09
2023-03-17T02:14:56.758Z,98806.66
2023-03-17T02:17:26.773Z,98805.31
2023-03-17T02:19:54.352Z,98797.00
2023-03-17T02:22:21.706Z,98797.31
2023-03-17T02:24:55.830Z,98782.88
2023-03-17T02:27:31.277Z,98795.75
2023-03-17T02:29:58.210Z,98797.34
2023-03-17T02:32:24.807Z,98785.84
2023-03-17T02:34:51.435Z,98793.84
2023-03-17T02:37:18.919Z,98787.94
2023-03-17T02:39:46.593Z,98788.78
2023-03-17T02:42:14.017Z,98789.56
2023-03-17T02:44:40.728Z,98787.69
2023-03-17T02:47:08.487Z,98785.81
2023-03-17T02:49:37.470Z,98784.19
2023-03-17T02:52:04.922Z,98788.50
2023-03-17T02:54:31.843Z,98785.31
2023-03-17T02:56:58.812Z,98781.56
2023-03-17T02:59:25.861Z,98785.31
2023-03-17T03:01:52.545Z,98787.97
2023-03-17T03:04:20.023Z,98786.38
2023-03-17T03:06:47.709Z,98781.28
2023-03-17T03:09:15.335Z,98783.72
2023-03-17T03:11:42.832Z,98777.00
2023-03-17T03:14:10.506Z,98770.81
2023-03-17T03:16:37.814Z,98779.16
2023-03-17T03:19:05.337Z,98775.09
2023-03-17T03:21:32.198Z,98782.09
2023-03-17T03:23:58.831Z,98783.72
2023-03-17T03:26:25.652Z,98789.59
2023-03-17T03:28:52.224Z,98776.78
2023-03-17T03:31:18.847Z,98794.97
2023-03-17T03:33:46.095Z,98799.28
2023-03-17T03:36:13.458Z,98795.78
2023-03-17T03:38:40.143Z,98791.00
2023-03-17T03:41:07.344Z,98792.31
2023-03-17T03:43:34.220Z,98787.78
2023-03-17T03:46:00.974Z,98792.59
2023-03-17T03:48:27.577Z,98795.78
2023-03-17T03:50:59.710Z,98800.91
2023-03-17T03:53:26.914Z,98802.22
2023-03-17T03:55:54.646Z,98800.63
2023-03-17T03:58:21.888Z,98804.38
2023-03-17T04:00:48.856Z,98800.91
2023-03-17T04:03:16.019Z,98802.75
2023-03-17T04:05:42.894Z,98799.28
2023-03-17T04:08:09.507Z,98796.59
2023-03-17T04:10:36.396Z,98799.00
2023-03-17T04:13:03.104Z,98815.59
2023-03-17T04:15:29.820Z,98817.47
2023-03-17T04:17:56.459Z,98821.50
2023-03-17T04:20:23.088Z,98818.53
2023-03-17T04:22:49.826Z,98810.50
2023-03-17T04:25:16.423Z,98810.25
2023-03-17T04:27:43.275Z,98820.41
2023-03-17T04:30:14.530Z,98815.31
2023-03-17T04:32:41.746Z,98811.03
2023-03-17T04:35:12.873Z,98814.22
2023-03-17T04:37:39.411Z,98810.50
2023-03-17T04:40:12.665Z,98811.03
2023-03-17T04:42:39.640Z,98813.19
2023-03-17T04:45:07.071Z,98814.78
2023-03-17T04:47:33.852Z,98804.06
2023-03-17T04:50:00.425Z,98803.53
2023-03-17T04:52:27.355Z,98799.22
2023-03-17T04:54:53.932Z,98800.28
2023-03-17T04:57:20.708Z,98809.66
2023-03-17T04:59:47.202Z,98805.63
2023-03-17T05:02:13.998Z,98812.88
2023-03-17T05:04:40.551Z,98813.16
2023-03-17T05:07:07.310Z,98818.75
2023-03-17T05:09:33.858Z,98811.53
2023-03-17T05:12:00.386Z,98814.19
2023-03-17T05:14:26.914Z,98807.50
2023-03-17T05:16:53.759Z,98814.97
2023-03-17T05:19:20.449Z,98809.31
2023-03-17T05:21:47.670Z,98804.78
2023-03-17T05:24:14.426Z,98808.81
2023-03-17T05:26:41.042Z,98807.72
2023-03-17T05:29:09.022Z,98813.31
2023-03-17T05:31:36.484Z,98803.41
2023-03-17T05:34:04.206Z,98813.28
2023-03-17T05:36:32.050Z,98811.41
2023-03-17T05:38:58.611Z,98813.53
2023-03-17T05:41:25.735Z,98813.00
2023-03-17T05:43:52.553Z,98823.16
2023-03-17T05:46:20.421Z,98821.56
2023-03-17T05:48:47.198Z,98818.38
2023-03-17T05:51:13.690Z,98814.38
2023-03-17T05:53:40.338Z,98812.47
2023-03-17T05:56:07.438Z,98810.25
2023-03-17T05:58:34.037Z,98819.47
2023-03-17T06:01:01.106Z,98800.16
2023-03-17T06:03:27.869Z,98791.09
2023-03-17T06:05:54.523Z,98794.59
2023-03-17T06:08:21.360Z,98786.63
2023-03-17T06:10:48.088Z,98786.34
2023-03-17T06:13:15.472Z,98783.72
2023-03-17T06:15:45.204Z,98790.25
2023-03-17T06:18:11.768Z,98792.78
2023-03-17T06:20:38.317Z,98796.06
2023-03-17T06:23:05.965Z,98800.25
2023-03-17T06:25:34.709Z,98803.94
2023-03-17T06:28:03.668Z,98803.22
2023-03-17T06:30:33.016Z,98812.41
2023-03-17T06:33:00.301Z,98812.97
2023-03-17T06:35:27.609Z,98815.66
2023-03-17T06:37:54.862Z,98822.09
2023-03-17T06:40:21.614Z,98817.25
2023-03-17T06:42:48.246Z,98817.19
2023-03-17T06:45:15.500Z,98817.66
2023-03-17T06:47:42.086Z,98809.81
2023-03-17T06:50:09.868Z,98811.38
2023-03-17T06:52:37.739Z,98818.31
2023-03-17T06:55:05.628Z,98822.28
2023-03-17T06:57:32.408Z,98826.03
2023-03-17T06:59:58.932Z,98821.69
2023-03-17T07:02:25.630Z,98827.03
2023-03-17T07:04:52.370Z,98831.81
2023-03-17T07:07:20.782Z,98828.28
2023-03-17T07:09:47.868Z,98836.03
2023-03-17T07:12:14.712Z,98839.50
2023-03-17T07:14:41.789Z,98835.16
2023-03-17T07:17:12.913Z,98837.78
2023-03-17T07:19:39.944Z,98848.19
2023-03-17T07:22:07.247Z,98855.97
2023-03-17T07:24:33.854Z,98850.81
2023-03-17T07:27:00.532Z,98850.47
2023-03-17T07:29:28.548Z,98839.16
2023-03-17T07:31:55.246Z,98842.59
2023-03-17T07:34:22.259Z,98837.69
2023-03-17T07:36:49.000Z,98836.28
2023-03-17T07:39:15.665Z,98838.34
2023-03-17T07:41:44.009Z,98832.31
2023-03-17T07:44:11.523Z,98830.88
2023-03-17T07:46:38.950Z,98817.28
2023-03-17T07:49:06.219Z,98813.16
2023-03-17T07:51:32.928Z,98813.88
2023-03-17T07:54:04.048Z,98808.94
2023-03-17T07:56:32.191Z,98812.34
2023-03-17T07:58:59.897Z,98814.97
2023-03-17T08:01:27.859Z,98813.28
2023-03-17T08:03:55.101Z,98819.13
2023-03-17T08:06:22.588Z,98818.72
2023-03-17T08:08:49.143Z,98821.88
2023-03-17T08:11:15.834Z,98829.25
2023-03-17T08:13:42.490Z,98832.19
2023-03-17T08:16:09.512Z,98834.78
2023-03-17T08:18:36.892Z,98826.34
2023-03-17T08:21:04.380Z,98832.44
2023-03-17T08:23:32.447Z,98826.38
2023-03-17T08:26:01.626Z,98828.38
2023-03-17T08:28:28.229Z,98826.91
2023-03-17T08:30:55.058Z,98830.53
2023-03-17T08:33:22.178Z,98834.13
2023-03-17T08:35:48.844Z,98830.72
2023-03-17T08:38:15.389Z,98830.66
2023-03-17T08:40:42.816Z,98827.28
2023-03-17T08:43:09.411Z,98832.78
2023-03-17T08:45:35.955Z,98828.00
2023-03-17T08:48:03.289Z,98826.19
2023-03-17T08:50:31.132Z,98839.47
2023-03-17T08:52:57.841Z,98825.25
2023-03-17T08:55:24.437Z,98819.16
2023-03-17T08:57:51.259Z,98813.94
2023-03-17T09:00:20.611Z,98810.25
2023-03-17T09:02:48.382Z,98812.22
2023-03-17T09:05:16.998Z,98802.31
2023-03-17T09:07:43.878Z,98791.88
2023-03-17T09:10:11.656Z,98794.66
2023-03-17T09:12:38.309Z,98802.63
2023-03-17T09:15:05.926Z,98809.97
2023-03-17T09:17:32.855Z,98809.53
2023-03-17T09:19:59.743Z,98818.53
2023-03-17T09:22:26.320Z,98823.19
2023-03-17T09:24:53.363Z,98817.03
2023-03-17T09:27:19.997Z,98813.31
2023-03-17T09:29:46.620Z,98814.16
2023-03-17T09:32:13.160Z,98807.50
2023-03-17T09:34:39.847Z,98797.38
2023-03-17T09:37:06.872Z,98799.78
2023-03-17T09:39:34.190Z,98799.53
2023-03-17T09:42:06.312Z,98805.28
2023-03-17T09:44:56.835Z,98805.31
2023-03-17T09:48:12.030Z,98781.81
2023-03-17T09:50:41.319Z,98784.72
2023-03-17T09:53:16.867Z,98782.81
2023-03-17T09:55:45.060Z,98787.13
2023-03-17T09:58:12.007Z,98784.09
2023-03-17T10:00:39.605Z,98782.88
2023-03-17T10:03:10.816Z,98785.09
2023-03-17T10:05:37.608Z,98789.72
2023-03-17T10:08:30.614Z,98788.56
2023-03-17T10:11:06.886Z,98771.00
2023-03-17T10:13:51.194Z,98775.44
2023-03-17T10:16:46.408Z,98757.22
2023-03-17T10:19:27.404Z,98761.66
2023-03-17T10:22:00.643Z,98751.41
2023-03-17T10:24:31.747Z,98754.66
2023-03-17T10:27:03.029Z,98742.81
2023-03-17T10:29:31.493Z,98754.09
2023-03-17T10:31:59.023Z,98745.72
2023-03-17T10:34:36.713Z,98744.84
2023-03-17T10:37:36.647Z,98742.78
2023-03-17T10:40:10.792Z,98748.47
2023-03-17T10:43:07.797Z,98735.41
2023-03-17T10:45:40.607Z,98729.97
2023-03-17T10:48:09.654Z,98737.91
2023-03-17T10:50:39.821Z,98721.19
2023-03-17T10:53:30.225Z,98720.16
2023-03-17T10:55:59.081Z,98715.00
2023-03-17T10:58:43.330Z,98713.72
2023-03-17T11:01:39.744Z,98709.81
2023-03-17T11:04:35.776Z,98708.03
2023-03-17T11:07:20.361Z,98713.25
2023-03-17T11:09:51.609Z,98724.84
2023-03-17T11:12:27.631Z,98715.44
2023-03-17T11:15:03.848Z,98708.75
2023-03-17T11:17:48.893Z,98703.19
2023-03-17T11:20:27.683Z,98700.91
2023-03-17T11:23:04.901Z,98703.97
2023-03-17T11:25:34.584Z,98696.56
2023-03-17T11:28:12.037Z,98697.22
2023-03-17T11:30:43.344Z,98698.31
2023-03-17T11:33:36.271Z,98691.47
2023-03-17T11:36:21.119Z,98680.78
2023-03-17T11:39:00.777Z,98692.78
2023-03-17T11:41:59.647Z,98699.84
2023-03-17T11:44:35.931Z,98692.53
2023-03-17T11:47:46.853Z,98692.19
2023-03-17T11:50:24.428Z,98683.03
2023-03-17T11:53:02.878Z,98691.66
2023-03-17T11:55:55.821Z,98690.25
2023-03-17T11:58:32.254Z,98688.16
2023-03-17T12:01:01.063Z,98684.81
2023-03-17T12:03:33.013Z,98689.03
2023-03-17T12:06:02.125Z,98684.13
2023-03-17T12:08:42.417Z,98681.84
2023-03-17T12:11:14.812Z,98681.84
2023-03-17T12:13:48.823Z,98688.06
2023-03-17T12:16:26.431Z,98685.34
2023-03-17T12:18:52.911Z,98686.31
2023-03-17T12:21:44.482Z,98684.19
2023-03-17T12:24:18.601Z,98684.63
2023-03-17T12:27:12.739Z,98681.28
2023-03-17T12:30:00.181Z,98688.00
2023-03-17T12:32:39.480Z,98685.94
2023-03-17T12:35:34.350Z,98666.16
2023-03-17T12:38:19.087Z,98674.59
2023-03-17T12:41:13.426Z,98676.81
2023-03-17T12:43:46.819Z,98673.97
2023-03-17T12:46:22.669Z,98679.53
2023-03-17T12:49:14.357Z,98676.47
2023-03-17T12:52:01.565Z,98674.41
2023-03-17T12:54:32.084Z,98669.03
2023-03-17T12:57:20.883Z,98662.06
2023-03-17T12:59:54.190Z,98666.09
2023-03-17T13:02:29.854Z,98660.56
2023-03-17T13:05:00.783Z,98659.91
2023-03-17T13:07:38.319Z,98662.94
2023-03-17T13:10:13.419Z,98665.50
2023-03-17T13:12:39.899Z,98667.38
2023-03-17T13:15:23.484Z,98664.81
2023-03-17T13:17:50.168Z,98667.91
2023-03-17T13:20:19.542Z,98677.66
2023-03-17T13:23:11.275Z,98666.44
2023-03-17T13:25:45.498Z,98660.59
2023-03-17T13:28:12.159Z,98664.56
2023-03-17T13:30:38.815Z,98674.19
2023-03-17T13:33:09.600Z,98681.47
2023-03-17T13:35:45.391Z,98676.97
2023-03-17T13:38:34.633Z,98682.72
2023-03-17T13:41:39.180Z,98680.25
2023-03-17T13:44:19.992Z,98679.44
2023-03-17T13:46:48.309Z,98666.16
2023-03-17T13:49:27.113Z,98663.34
2023-03-17T13:52:13.900Z,98665.25
2023-03-17T13:54:59.670Z,98669.13
2023-03-17T13:57:38.968Z,98651.19
2023-03-17T14:00:22.532Z,98657.78
2023-03-17T14:02:50.930Z,98661.22
2023-03-17T14:05:24.339Z,98668.69
2023-03-17T14:07:53.912Z,98671.97
2023-03-17T14:10:24.178Z,98666.16
2023-03-17T14:13:02.549Z,98662.75
2023-03-17T14:15:37.809Z,98657.28
2023-03-17T14:18:33.548Z,98657.28
2023-03-17T14:21:02.802Z,98652.16
2023-03-17T14:23:29.979Z,98645.13
2023-03-17T14:25:58.887Z,98639.13
2023-03-17T14:28:32.531Z,98629.38
2023-03-17T14:31:04.642Z,98636.41
2023-03-17T14:33:37.981Z,98629.81
2023-03-17T14:36:08.662Z,98634.22
2023-03-17T14:38:37.672Z,98622.69
2023-03-17T14:41:07.834Z,98628.22
2023-03-17T14:43:36.154Z,98629.72
2023-03-17T14:46:04.982Z,98628.41
2023-03-17T14:48:35.311Z,98621.81
2023-03-17T14:51:05.804Z,98622.84
2023-03-17T14:53:39.178Z,98627.78
2023-03-17T14:56:06.338Z,98623.19
2023-03-17T14:58:40.608Z,98628.28
2023-03-17T15:01:20.150Z,98635.00
2023-03-17T15:03:59.007Z,98622.06
2023-03-17T15:06:28.379Z,98616.88
2023-03-17T15:08:59.440Z,98621.19
2023-03-17T15:11:28.701Z,98625.50
2023-03-17T15:14:04.810Z,98622.34
2023-03-17T15:16:35.389Z,98613.72
2023-03-17T15:19:29.745Z,98615.91
2023-03-17T15:21:59.811Z,98614.38
2023-03-17T15:24:36.520Z,98611.16
2023-03-17T15:27:14.480Z,98612.22
2023-03-17T15:29:41.304Z,98605.50
2023-03-17T15:32:15.153Z,98612.50
2023-03-17T15:34:42.029Z,98619.78
2023-03-17T15:37:26.897Z,98616.16
2023-03-17T15:39:55.774Z,98619.59
2023-03-17T15:42:27.561Z,98612.00
2023-03-17T15:44:54.933Z,98623.28
2023-03-17T15:47:25.561Z,98608.72
2023-03-17T15:49:54.821Z,98612.59
2023-03-17T15:52:25.156Z,98617.16
2023-03-17T15:54:58.496Z,98613.78
2023-03-17T15:57:26.264Z,98621.47
2023-03-17T15:59:52.919Z,98614.44
2023-03-17T16:02:32.092Z,98611.50
2023-03-17T16:05:12.831Z,98611.66
2023-03-17T16:07:39.613Z,98611.63
2023-03-17T16:10:22.580Z,98616.09
2023-03-17T16:12:49.802Z,98610.13
2023-03-17T16:15:23.044Z,98607.34
2023-03-17T16:17:54.133Z,98603.06
2023-03-17T16:20:26.058Z,98616.00
2023-03-17T16:22:55.858Z,98617.31
2023-03-17T16:25:31.429Z,98618.59
2023-03-17T16:28:03.000Z,98621.47
2023-03-17T16:30:32.603Z,98611.19
2023-03-17T16:33:09.379Z,98626.22
2023-03-17T16:35:36.049Z,98619.53
2023-03-17T16:38:02.606Z,98627.63
2023-03-17T16:40:35.441Z,98629.47
2023-03-17T16:43:12.896Z,98629.72
2023-03-17T16:45:42.381Z,98628.81
2023-03-17T16:48:13.086Z,98620.44
2023-03-17T16:50:39.662Z,98635.91
2023-03-17T16:53:06.542Z,98637.28
2023-03-17T16:55:33.430Z,98634.13
2023-03-17T16:58:05.878Z,98631.63
2023-03-17T17:00:32.697Z,98632.25
2023-03-17T17:02:59.573Z,98630.53
2023-03-17T17:05:29.046Z,98639.41
2023-03-17T17:07:59.449Z,98638.50
2023-03-17T17:10:29.778Z,98644.19
2023-03-17T17:12:56.523Z,98641.66
2023-03-17T17:15:23.517Z,98648.50
2023-03-17T17:17:54.129Z,98651.47
2023-03-17T17:20:24.622Z,98664.38
2023-03-17T17:22:51.363Z,98653.19
2023-03-17T17:25:18.648Z,98666.91
2023-03-17T17:27:46.565Z,98659.66
2023-03-17T17:30:16.143Z,98663.28
2023-03-17T17:32:43.084Z,98663.72
2023-03-17T17:35:10.332Z,98669.63
2023-03-17T17:37:36.988Z,98668.91
2023-03-17T17:40:05.782Z,98664.38
2023-03-17T17:42:32.301Z,98676.47
2023-03-17T17:44:59.175Z,98673.03
2023-03-17T17:47:25.866Z,98675.84
2023-03-17T17:49:52.467Z,98684.06
2023-03-17T17:52:19.502Z,98693.88
2023-03-17T17:54:46.185Z,98690.47
2023-03-17T17:57:13.250Z,98690.19
2023-03-17T17:59:40.375Z,98691.06
2023-03-17T18:02:07.111Z,98690.81
2023-03-17T18:04:33.931Z,98691.00
2023-03-17T18:07:00.535Z,98695.50
2023-03-17T18:09:27.730Z,98688.03
2023-03-17T18:11:54.324Z,98677.38
2023-03-17T18:14:21.231Z,98688.91
2023-03-17T18:16:47.917Z,98696.91
2023-03-17T18:19:15.293Z,98689.28
2023-03-17T18:21:42.260Z,98692.19
2023-03-17T18:24:09.370Z,98682.47
2023-03-17T18:26:35.956Z,98687.44
2023-03-17T18:29:03.013Z,98696.22
2023-03-17T18:31:34.873Z,98694.97
2023-03-17T18:34:08.871Z,98693.22
2023-03-17T18:36:35.733Z,98702.50
2023-03-17T18:39:02.359Z,98706.31
2023-03-17T18:41:28.908Z,98711.75
2023-03-17T18:43:55.682Z,98717.81
2023-03-17T18:46:23.092Z,98710.31
2023-03-17T18:48:49.837Z,98711.78
2023-03-17T18:51:16.647Z,98702.66
2023-03-17T18:53:43.567Z,98696.59
2023-03-17T18:56:10.185Z,98710.00
2023-03-17T18:58:37.288Z,98696.53
2023-03-17T19:01:04.014Z,98698.94
2023-03-17T19:03:32.271Z,98698.94
2023-03-17T19:06:08.274Z,98709.34
2023-03-17T19:08:34.890Z,98704.38
2023-03-17T19:11:01.756Z,98704.38
2023-03-17T19:13:28.264Z,98702.78
2023-03-17T19:15:55.666Z,98708.22
2023-03-17T19:18:22.202Z,98717.47
2023-03-17T19:20:48.720Z,98722.09
2023-03-17T19:23:15.515Z,98714.31
2023-03-17T19:25:42.240Z,98714.31
2023-03-17T19:28:08.996Z,98714.94
2023-03-17T19:30:35.870Z,98708.88
2023-03-17T19:33:02.565Z,98710.56
2023-03-17T19:35:29.124Z,98702.13
2023-03-17T19:37:56.429Z,98712.63
2023-03-17T19:40:23.219Z,98708.78
2023-03-17T19:42:49.981Z,98715.63
2023-03-17T19:45:16.647Z,98719.13
2023-03-17T19:47:43.188Z,98724.09
2023-03-17T19:50:10.283Z,98724.09
2023-03-17T19:52:36.843Z,98742.94
2023-03-17T19:55:05.454Z,98739.00
2023-03-17T19:57:34.120Z,98745.19
2023-03-17T20:00:00.631Z,98752.56
2023-03-17T20:02:27.161Z,98747.78
2023-03-17T20:04:53.801Z,98754.34
2023-03-17T20:07:20.782Z,98751.47
2023-03-17T20:09:48.598Z,98751.31
2023-03-17T20:12:15.613Z,98761.22
2023-03-17T20:14:42.231Z,98771.31
2023-03-17T20:17:08.753Z,98776.94
2023-03-17T20:19:39.266Z,98785.22
2023-03-17T20:22:07.195Z,98786.06
2023-03-17T20:24:34.763Z,98785.78
2023-03-17T20:27:02.905Z,98790.41
2023-03-17T20:29:29.440Z,98784.72
2023-03-17T20:31:56.423Z,98786.00
2023-03-17T20:34:23.681Z,98790.50
2023-03-17T20:36:51.416Z,98792.41
2023-03-17T20:39:20.576Z,98796.41
2023-03-17T20:41:48.742Z,98798.00
2023-03-17T20:44:16.679Z,98809.78
2023-03-17T20:46:44.537Z,98810.91
2023-03-17T20:49:12.336Z,98809.31
2023-03-17T20:51:40.062Z,98807.88
2023-03-17T20:54:08.390Z,98806.94
2023-03-17T20:56:36.678Z,98805.97
2023-03-17T20:59:05.170Z,98808.34
2023-03-17T21:01:38.853Z,98812.19
2023-03-17T21:04:08.924Z,98807.25
2023-03-17T21:06:36.777Z,98803.59
2023-03-17T21:09:04.756Z,98810.75
2023-03-17T21:11:31.320Z,98819.38
2023-03-17T21:13:57.883Z,98816.81
2023-03-17T21:16:27.893Z,98822.09
2023-03-17T21:18:54.772Z,98825.72
2023-03-17T21:21:22.227Z,98825.09
2023-03-17T21:23:49.319Z,98820.66
2023-03-17T21:26:16.237Z,98830.34
2023-03-17T21:28:43.210Z,98828.56
2023-03-17T21:31:11.060Z,98834.31
2023-03-17T21:33:38.374Z,98828.38
2023-03-17T21:36:05.883Z,98829.03
2023-03-17T21:38:32.699Z,98832.38
2023-03-17T21:41:22.266Z,98834.13
2023-03-17T21:43:49.442Z,98838.88
2023-03-17T21:46:16.149Z,98829.03
2023-03-17T21:48:44.010Z,98826.44
2023-03-17T21:51:11.361Z,98814.19
2023-03-17T21:53:37.924Z,98816.69
2023-03-17T21:56:04.829Z,98825.47
2023-03-17T21:58:31.399Z,98819.91
2023-03-17T22:00:58.014Z,98823.19
2023-03-17T22:03:24.606Z,98823.19
2023-03-17T22:05:51.188Z,98821.13
2023-03-17T22:08:18.365Z,98822.25
2023-03-17T22:10:45.047Z,98822.88
2023-03-17T22:13:12.553Z,98821.91
2023-03-17T22:15:39.204Z,98816.81
2023-03-17T22:18:06.157Z,98817.75
2023-03-17T22:20:33.282Z,98818.06
2023-03-17T22:22:59.986Z,98814.56
2023-03-17T22:25:26.512Z,98818.88
2023-03-17T22:27:54.677Z,98818.06
2023-03-17T22:30:21.441Z,98818.41
2023-03-17T22:32:48.117Z,98810.41
2023-03-17T22:35:14.730Z,98814.69
2023-03-17T22:37:42.105Z,98810.41
2023-03-17T22:40:09.427Z,98812.31
2023-03-17T22:42:35.981Z,98814.84
2023-03-17T22:45:02.555Z,98821.69
2023-03-17T22:47:29.113Z,98818.16
2023-03-17T22:49:55.674Z,98831.69
2023-03-17T22:52:22.296Z,98839.03
2023-03-17T22:54:48.868Z,98831.50
2023-03-17T22:57:15.623Z,98832.31
2023-03-17T22:59:42.192Z,98821.50
2023-03-17T23:02:08.767Z,98819.28
2023-03-17T23:04:35.971Z,98814.69
2023-03-17T23:07:03.308Z,98821.50
2023-03-17T23:09:29.935Z,98818.31
2023-03-17T23:11:56.489Z,98813.69
2023-03-17T23:14:23.472Z,98816.72
2023-03-17T23:16:50.045Z,98811.94
2023-03-17T23:19:16.693Z,98811.47
2023-03-17T23:21:43.367Z,98816.06
2023-03-17T23:24:09.968Z,98824.97
2023-03-17T23:26:37.129Z,98825.75
2023-03-17T23:29:05.763Z,98838.78
2023-03-17T23:31:34.067Z,98847.22
2023-03-17T23:34:01.017Z,98840.19
2023-03-17T23:36:27.794Z,98836.38
2023-03-17T23:38:54.357Z,98838.59
2023-03-17T23:41:21.201Z,98824.13
2023-03-17T23:43:47.886Z,98835.06
2023-03-17T23:46:14.782Z,98834.09
2023-03-17T23:48:42.854Z,98834.88
2023-03-17T23:51:11.147Z,98838.88
2023-03-17T23:53:39.565Z,98831.06
2023-03-17T23:56:07.176Z,98843.81
2023-03-17T23:58:33.907Z,98850.31
